sensor_id;sensor_type;location;lat;lon;timestamp;P1;durP1;ratioP1;P2;durP2;ratioP2
7759;SDS011;3924;48.830;9.262;2023-05-09T00:01:17;4.33;;;3.93;;
7759;SDS011;3924;48.830;9.262;2023-05-09T00:03:43;4.40;;;3.50;;
7759;SDS011;3924;48.830;9.262;2023-05-09T00:06:10;6.53;;;4.60;;
7759;SDS011;3924;48.830;9.262;2023-05-09T00:08:38;5.60;;;4.13;;
7759;SDS011;3924;48.830;9.262;2023-05-09T00:11:06;4.17;;;3.80;;
7759;SDS011;3924;48.830;9.262;2023-05-09T00:13:32;4.63;;;3.80;;
7759;SDS011;3924;48.830;9.262;2023-05-09T00:15:59;4.47;;;4.07;;
7759;SDS011;3924;48.830;9.262;2023-05-09T00:18:26;4.50;;;3.60;;
7759;SDS011;3924;48.830;9.262;2023-05-09T00:20:53;4.90;;;4.40;;
7759;SDS011;3924;48.830;9.262;2023-05-09T00:23:20;5.00;;;4.03;;
7759;SDS011;3924;48.830;9.262;2023-05-09T00:25:46;4.57;;;4.17;;
7759;SDS011;3924;48.830;9.262;2023-05-09T00:28:13;5.77;;;4.30;;
7759;SDS011;3924;48.830;9.262;2023-05-09T00:30:39;5.20;;;4.10;;
7759;SDS011;3924;48.830;9.262;2023-05-09T00:33:06;4.10;;;3.70;;
7759;SDS011;3924;48.830;9.262;2023-05-09T00:35:33;4.43;;;3.80;;
7759;SDS011;3924;48.830;9.262;2023-05-09T00:38:00;4.80;;;4.40;;
7759;SDS011;3924;48.830;9.262;2023-05-09T00:40:26;4.60;;;4.03;;
7759;SDS011;3924;48.830;9.262;2023-05-09T00:42:53;5.50;;;4.40;;
7759;SDS011;3924;48.830;9.262;2023-05-09T00:45:20;4.47;;;3.90;;
7759;SDS011;3924;48.830;9.262;2023-05-09T00:47:47;9.67;;;4.67;;
7759;SDS011;3924;48.830;9.262;2023-05-09T00:50:14;3.93;;;3.40;;
7759;SDS011;3924;48.830;9.262;2023-05-09T00:52:40;4.80;;;3.77;;
7759;SDS011;3924;48.830;9.262;2023-05-09T00:55:07;4.87;;;4.00;;
7759;SDS011;3924;48.830;9.262;2023-05-09T00:57:34;4.27;;;3.93;;
7759;SDS011;3924;48.830;9.262;2023-05-09T01:00:01;6.53;;;4.43;;
7759;SDS011;3924;48.830;9.262;2023-05-09T01:02:29;4.20;;;3.80;;
7759;SDS011;3924;48.830;9.262;2023-05-09T01:04:57;5.13;;;4.50;;
7759;SDS011;3924;48.830;9.262;2023-05-09T01:07:27;4.87;;;4.10;;
7759;SDS011;3924;48.830;9.262;2023-05-09T01:10:01;4.50;;;3.80;;
7759;SDS011;3924;48.830;9.262;2023-05-09T01:19:08;3.47;;;3.17;;
7759;SDS011;3924;48.830;9.262;2023-05-09T01:21:40;5.33;;;4.23;;
7759;SDS011;3924;48.830;9.262;2023-05-09T01:29:58;5.17;;;4.43;;
7759;SDS011;3924;48.830;9.262;2023-05-09T01:32:27;4.50;;;4.07;;
7759;SDS011;3924;48.830;9.262;2023-05-09T01:34:58;6.90;;;4.80;;
7759;SDS011;3924;48.830;9.262;2023-05-09T01:37:30;5.23;;;3.90;;
7759;SDS011;3924;48.830;9.262;2023-05-09T01:39:59;4.60;;;4.00;;
7759;SDS011;3924;48.830;9.262;2023-05-09T01:42:42;6.47;;;4.47;;
7759;SDS011;3924;48.830;9.262;2023-05-09T01:45:22;4.43;;;3.97;;
7759;SDS011;3924;48.830;9.262;2023-05-09T01:47:50;4.10;;;3.70;;
7759;SDS011;3924;48.830;9.262;2023-05-09T01:50:18;3.93;;;3.47;;
7759;SDS011;3924;48.830;9.262;2023-05-09T01:52:47;4.90;;;4.03;;
7759;SDS011;3924;48.830;9.262;2023-05-09T01:55:17;4.07;;;3.57;;
7759;SDS011;3924;48.830;9.262;2023-05-09T01:57:47;3.67;;;3.30;;
7759;SDS011;3924;48.830;9.262;2023-05-09T02:00:15;5.93;;;4.03;;
7759;SDS011;3924;48.830;9.262;2023-05-09T02:02:42;4.00;;;3.60;;
7759;SDS011;3924;48.830;9.262;2023-05-09T02:05:10;4.93;;;4.43;;
7759;SDS011;3924;48.830;9.262;2023-05-09T02:07:39;7.53;;;4.10;;
7759;SDS011;3924;48.830;9.262;2023-05-09T02:10:07;4.37;;;3.97;;
7759;SDS011;3924;48.830;9.262;2023-05-09T02:12:35;5.50;;;4.03;;
7759;SDS011;3924;48.830;9.262;2023-05-09T02:15:02;5.30;;;4.77;;
7759;SDS011;3924;48.830;9.262;2023-05-09T02:17:29;5.40;;;4.50;;
7759;SDS011;3924;48.830;9.262;2023-05-09T02:19:56;4.50;;;3.73;;
7759;SDS011;3924;48.830;9.262;2023-05-09T02:22:23;5.47;;;4.50;;
7759;SDS011;3924;48.830;9.262;2023-05-09T02:24:49;4.10;;;3.50;;
7759;SDS011;3924;48.830;9.262;2023-05-09T02:27:16;3.97;;;3.57;;
7759;SDS011;3924;48.830;9.262;2023-05-09T02:29:46;4.60;;;4.10;;
7759;SDS011;3924;48.830;9.262;2023-05-09T02:32:15;4.83;;;4.13;;
7759;SDS011;3924;48.830;9.262;2023-05-09T02:34:45;4.93;;;4.10;;
7759;SDS011;3924;48.830;9.262;2023-05-09T02:37:14;4.83;;;4.13;;
7759;SDS011;3924;48.830;9.262;2023-05-09T02:39:41;4.73;;;3.93;;
7759;SDS011;3924;48.830;9.262;2023-05-09T02:42:09;3.53;;;3.23;;
7759;SDS011;3924;48.830;9.262;2023-05-09T02:44:36;4.90;;;3.60;;
7759;SDS011;3924;48.830;9.262;2023-05-09T02:47:04;6.60;;;4.60;;
7759;SDS011;3924;48.830;9.262;2023-05-09T02:49:32;8.90;;;4.47;;
7759;SDS011;3924;48.830;9.262;2023-05-09T02:51:59;7.43;;;5.00;;
7759;SDS011;3924;48.830;9.262;2023-05-09T02:54:26;4.80;;;4.03;;
7759;SDS011;3924;48.830;9.262;2023-05-09T02:56:53;5.00;;;4.63;;
7759;SDS011;3924;48.830;9.262;2023-05-09T02:59:19;6.60;;;4.73;;
7759;SDS011;3924;48.830;9.262;2023-05-09T03:01:46;5.50;;;4.57;;
7759;SDS011;3924;48.830;9.262;2023-05-09T03:04:13;9.63;;;4.80;;
7759;SDS011;3924;48.830;9.262;2023-05-09T03:06:39;7.23;;;4.60;;
7759;SDS011;3924;48.830;9.262;2023-05-09T03:09:06;6.60;;;4.63;;
7759;SDS011;3924;48.830;9.262;2023-05-09T03:11:33;6.43;;;4.50;;
7759;SDS011;3924;48.830;9.262;2023-05-09T03:14:02;5.37;;;4.57;;
7759;SDS011;3924;48.830;9.262;2023-05-09T03:16:29;5.67;;;4.70;;
7759;SDS011;3924;48.830;9.262;2023-05-09T03:18:56;8.07;;;4.97;;
7759;SDS011;3924;48.830;9.262;2023-05-09T03:21:23;5.73;;;5.23;;
7759;SDS011;3924;48.830;9.262;2023-05-09T03:23:49;8.37;;;5.20;;
7759;SDS011;3924;48.830;9.262;2023-05-09T03:26:16;7.30;;;5.17;;
7759;SDS011;3924;48.830;9.262;2023-05-09T03:28:42;10.80;;;6.13;;
7759;SDS011;3924;48.830;9.262;2023-05-09T03:31:09;15.53;;;4.90;;
7759;SDS011;3924;48.830;9.262;2023-05-09T03:33:35;6.07;;;4.83;;
7759;SDS011;3924;48.830;9.262;2023-05-09T03:36:02;6.83;;;5.43;;
7759;SDS011;3924;48.830;9.262;2023-05-09T03:38:29;6.93;;;5.07;;
7759;SDS011;3924;48.830;9.262;2023-05-09T03:40:55;5.43;;;4.93;;
7759;SDS011;3924;48.830;9.262;2023-05-09T03:43:22;6.50;;;5.07;;
7759;SDS011;3924;48.830;9.262;2023-05-09T03:45:48;7.53;;;4.83;;
7759;SDS011;3924;48.830;9.262;2023-05-09T03:48:15;6.27;;;4.80;;
7759;SDS011;3924;48.830;9.262;2023-05-09T03:50:42;6.63;;;5.10;;
7759;SDS011;3924;48.830;9.262;2023-05-09T03:53:09;7.37;;;5.23;;
7759;SDS011;3924;48.830;9.262;2023-05-09T03:55:36;6.27;;;4.67;;
7759;SDS011;3924;48.830;9.262;2023-05-09T03:58:02;7.40;;;5.03;;
7759;SDS011;3924;48.830;9.262;2023-05-09T04:00:29;7.80;;;5.77;;
7759;SDS011;3924;48.830;9.262;2023-05-09T04:02:55;7.27;;;5.90;;
7759;SDS011;3924;48.830;9.262;2023-05-09T04:05:22;7.37;;;5.37;;
7759;SDS011;3924;48.830;9.262;2023-05-09T04:07:49;5.67;;;4.77;;
7759;SDS011;3924;48.830;9.262;2023-05-09T04:10:16;6.97;;;5.67;;
7759;SDS011;3924;48.830;9.262;2023-05-09T04:12:42;9.13;;;5.67;;
7759;SDS011;3924;48.830;9.262;2023-05-09T04:15:09;7.13;;;5.20;;
7759;SDS011;3924;48.830;9.262;2023-05-09T04:17:36;7.97;;;6.37;;
7759;SDS011;3924;48.830;9.262;2023-05-09T04:20:02;10.47;;;5.37;;
7759;SDS011;3924;48.830;9.262;2023-05-09T04:22:29;8.07;;;5.50;;
7759;SDS011;3924;48.830;9.262;2023-05-09T04:24:56;6.77;;;5.17;;
7759;SDS011;3924;48.830;9.262;2023-05-09T04:27:23;8.27;;;5.70;;
7759;SDS011;3924;48.830;9.262;2023-05-09T04:29:50;6.40;;;4.50;;
7759;SDS011;3924;48.830;9.262;2023-05-09T04:32:16;7.77;;;4.93;;
7759;SDS011;3924;48.830;9.262;2023-05-09T04:34:43;7.37;;;5.63;;
7759;SDS011;3924;48.830;9.262;2023-05-09T04:37:09;9.00;;;4.93;;
7759;SDS011;3924;48.830;9.262;2023-05-09T04:39:36;5.77;;;4.77;;
7759;SDS011;3924;48.830;9.262;2023-05-09T04:42:02;10.17;;;5.60;;
7759;SDS011;3924;48.830;9.262;2023-05-09T04:44:29;6.33;;;5.00;;
7759;SDS011;3924;48.830;9.262;2023-05-09T04:46:56;7.40;;;4.90;;
7759;SDS011;3924;48.830;9.262;2023-05-09T04:49:23;14.90;;;5.43;;
7759;SDS011;3924;48.830;9.262;2023-05-09T04:51:50;8.73;;;5.40;;
7759;SDS011;3924;48.830;9.262;2023-05-09T04:54:16;9.90;;;5.37;;
7759;SDS011;3924;48.830;9.262;2023-05-09T04:56:43;7.07;;;6.10;;
7759;SDS011;3924;48.830;9.262;2023-05-09T04:59:09;9.43;;;5.57;;
7759;SDS011;3924;48.830;9.262;2023-05-09T05:01:36;6.03;;;5.13;;
7759;SDS011;3924;48.830;9.262;2023-05-09T05:04:03;9.63;;;5.20;;
7759;SDS011;3924;48.830;9.262;2023-05-09T05:06:30;7.83;;;4.87;;
7759;SDS011;3924;48.830;9.262;2023-05-09T05:08:57;7.50;;;5.23;;
7759;SDS011;3924;48.830;9.262;2023-05-09T05:11:23;6.73;;;5.33;;
7759;SDS011;3924;48.830;9.262;2023-05-09T05:13:50;7.20;;;6.00;;
7759;SDS011;3924;48.830;9.262;2023-05-09T05:16:16;6.80;;;4.93;;
7759;SDS011;3924;48.830;9.262;2023-05-09T05:18:43;10.83;;;5.57;;
7759;SDS011;3924;48.830;9.262;2023-05-09T05:21:09;4.77;;;4.20;;
7759;SDS011;3924;48.830;9.262;2023-05-09T05:23:36;9.47;;;6.23;;
7759;SDS011;3924;48.830;9.262;2023-05-09T05:26:02;10.87;;;6.10;;
7759;SDS011;3924;48.830;9.262;2023-05-09T05:28:29;8.80;;;5.63;;
7759;SDS011;3924;48.830;9.262;2023-05-09T05:30:55;9.83;;;5.87;;
7759;SDS011;3924;48.830;9.262;2023-05-09T05:33:22;7.53;;;5.07;;
7759;SDS011;3924;48.830;9.262;2023-05-09T05:35:48;8.00;;;5.50;;
7759;SDS011;3924;48.830;9.262;2023-05-09T05:38:15;10.53;;;6.20;;
7759;SDS011;3924;48.830;9.262;2023-05-09T05:40:41;13.30;;;6.17;;
7759;SDS011;3924;48.830;9.262;2023-05-09T05:43:08;9.00;;;6.27;;
7759;SDS011;3924;48.830;9.262;2023-05-09T05:45:34;7.90;;;5.30;;
7759;SDS011;3924;48.830;9.262;2023-05-09T05:48:01;8.27;;;5.67;;
7759;SDS011;3924;48.830;9.262;2023-05-09T05:50:27;8.23;;;6.33;;
7759;SDS011;3924;48.830;9.262;2023-05-09T05:52:54;8.37;;;6.03;;
7759;SDS011;3924;48.830;9.262;2023-05-09T05:55:20;6.17;;;5.40;;
7759;SDS011;3924;48.830;9.262;2023-05-09T05:57:47;12.90;;;7.17;;
7759;SDS011;3924;48.830;9.262;2023-05-09T06:00:13;8.20;;;4.60;;
7759;SDS011;3924;48.830;9.262;2023-05-09T06:02:41;9.57;;;5.80;;
7759;SDS011;3924;48.830;9.262;2023-05-09T06:05:13;8.80;;;6.50;;
7759;SDS011;3924;48.830;9.262;2023-05-09T06:07:39;7.47;;;5.60;;
7759;SDS011;3924;48.830;9.262;2023-05-09T06:10:09;8.73;;;5.93;;
7759;SDS011;3924;48.830;9.262;2023-05-09T06:12:36;19.10;;;5.60;;
7759;SDS011;3924;48.830;9.262;2023-05-09T06:15:02;9.03;;;6.40;;
7759;SDS011;3924;48.830;9.262;2023-05-09T06:17:33;12.87;;;6.60;;
7759;SDS011;3924;48.830;9.262;2023-05-09T06:19:59;10.07;;;5.90;;
7759;SDS011;3924;48.830;9.262;2023-05-09T06:22:26;10.63;;;7.07;;
7759;SDS011;3924;48.830;9.262;2023-05-09T06:24:52;9.70;;;6.87;;
7759;SDS011;3924;48.830;9.262;2023-05-09T06:27:19;11.07;;;6.70;;
7759;SDS011;3924;48.830;9.262;2023-05-09T06:29:45;8.77;;;6.07;;
7759;SDS011;3924;48.830;9.262;2023-05-09T06:32:12;8.23;;;6.03;;
7759;SDS011;3924;48.830;9.262;2023-05-09T06:34:38;10.97;;;6.93;;
7759;SDS011;3924;48.830;9.262;2023-05-09T06:37:07;9.20;;;6.50;;
7759;SDS011;3924;48.830;9.262;2023-05-09T06:39:33;8.93;;;5.83;;
7759;SDS011;3924;48.830;9.262;2023-05-09T06:41:59;8.10;;;5.97;;
7759;SDS011;3924;48.830;9.262;2023-05-09T06:44:26;11.53;;;5.90;;
7759;SDS011;3924;48.830;9.262;2023-05-09T06:46:53;7.13;;;5.77;;
7759;SDS011;3924;48.830;9.262;2023-05-09T06:49:20;9.83;;;6.67;;
7759;SDS011;3924;48.830;9.262;2023-05-09T06:51:47;11.57;;;7.33;;
7759;SDS011;3924;48.830;9.262;2023-05-09T06:54:14;8.63;;;6.37;;
7759;SDS011;3924;48.830;9.262;2023-05-09T06:56:42;11.57;;;6.67;;
7759;SDS011;3924;48.830;9.262;2023-05-09T06:59:08;8.97;;;6.53;;
7759;SDS011;3924;48.830;9.262;2023-05-09T07:01:38;10.63;;;6.93;;
7759;SDS011;3924;48.830;9.262;2023-05-09T07:04:06;8.87;;;6.90;;
7759;SDS011;3924;48.830;9.262;2023-05-09T07:06:32;14.50;;;7.23;;
7759;SDS011;3924;48.830;9.262;2023-05-09T07:08:59;9.50;;;6.70;;
7759;SDS011;3924;48.830;9.262;2023-05-09T07:11:26;14.07;;;8.87;;
7759;SDS011;3924;48.830;9.262;2023-05-09T07:13:52;10.53;;;6.77;;
7759;SDS011;3924;48.830;9.262;2023-05-09T07:16:19;10.30;;;6.73;;
7759;SDS011;3924;48.830;9.262;2023-05-09T07:18:48;7.70;;;6.20;;
7759;SDS011;3924;48.830;9.262;2023-05-09T07:21:14;9.70;;;7.23;;
7759;SDS011;3924;48.830;9.262;2023-05-09T07:23:41;7.40;;;5.97;;
7759;SDS011;3924;48.830;9.262;2023-05-09T07:26:08;8.70;;;7.13;;
7759;SDS011;3924;48.830;9.262;2023-05-09T07:28:34;8.43;;;5.10;;
7759;SDS011;3924;48.830;9.262;2023-05-09T07:31:01;9.20;;;6.43;;
7759;SDS011;3924;48.830;9.262;2023-05-09T07:33:28;8.63;;;5.00;;
7759;SDS011;3924;48.830;9.262;2023-05-09T07:35:59;9.37;;;6.20;;
7759;SDS011;3924;48.830;9.262;2023-05-09T07:38:26;10.43;;;5.60;;
7759;SDS011;3924;48.830;9.262;2023-05-09T07:40:52;8.10;;;5.90;;
7759;SDS011;3924;48.830;9.262;2023-05-09T07:43:19;5.73;;;5.10;;
7759;SDS011;3924;48.830;9.262;2023-05-09T07:45:46;7.77;;;5.37;;
7759;SDS011;3924;48.830;9.262;2023-05-09T07:48:12;8.13;;;6.00;;
7759;SDS011;3924;48.830;9.262;2023-05-09T07:50:39;5.73;;;4.63;;
7759;SDS011;3924;48.830;9.262;2023-05-09T07:53:06;8.53;;;5.77;;
7759;SDS011;3924;48.830;9.262;2023-05-09T07:55:34;10.13;;;6.33;;
7759;SDS011;3924;48.830;9.262;2023-05-09T07:58:01;7.87;;;5.67;;
7759;SDS011;3924;48.830;9.262;2023-05-09T08:00:28;6.97;;;5.20;;
7759;SDS011;3924;48.830;9.262;2023-05-09T08:02:55;14.93;;;5.93;;
7759;SDS011;3924;48.830;9.262;2023-05-09T08:05:22;14.00;;;6.43;;
7759;SDS011;3924;48.830;9.262;2023-05-09T08:07:51;13.37;;;5.87;;
7759;SDS011;3924;48.830;9.262;2023-05-09T08:10:18;8.90;;;5.90;;
7759;SDS011;3924;48.830;9.262;2023-05-09T08:12:48;10.10;;;6.50;;
7759;SDS011;3924;48.830;9.262;2023-05-09T08:15:14;7.50;;;5.83;;
7759;SDS011;3924;48.830;9.262;2023-05-09T08:17:41;6.57;;;4.87;;
7759;SDS011;3924;48.830;9.262;2023-05-09T08:20:10;5.70;;;4.20;;
7759;SDS011;3924;48.830;9.262;2023-05-09T08:22:37;7.17;;;4.70;;
7759;SDS011;3924;48.830;9.262;2023-05-09T08:25:06;7.07;;;4.53;;
7759;SDS011;3924;48.830;9.262;2023-05-09T08:27:33;7.13;;;5.40;;
7759;SDS011;3924;48.830;9.262;2023-05-09T08:30:00;6.17;;;4.80;;
7759;SDS011;3924;48.830;9.262;2023-05-09T08:32:28;6.77;;;5.07;;
7759;SDS011;3924;48.830;9.262;2023-05-09T08:34:55;7.20;;;4.73;;
7759;SDS011;3924;48.830;9.262;2023-05-09T08:37:24;9.67;;;4.07;;
7759;SDS011;3924;48.830;9.262;2023-05-09T08:39:54;4.90;;;4.17;;
7759;SDS011;3924;48.830;9.262;2023-05-09T08:42:21;4.43;;;4.00;;
7759;SDS011;3924;48.830;9.262;2023-05-09T08:44:51;5.33;;;3.83;;
7759;SDS011;3924;48.830;9.262;2023-05-09T08:47:18;4.00;;;3.60;;
7759;SDS011;3924;48.830;9.262;2023-05-09T08:49:46;7.37;;;5.50;;
7759;SDS011;3924;48.830;9.262;2023-05-09T08:52:16;7.30;;;4.73;;
7759;SDS011;3924;48.830;9.262;2023-05-09T08:54:43;7.00;;;4.90;;
7759;SDS011;3924;48.830;9.262;2023-05-09T08:57:10;5.57;;;3.97;;
7759;SDS011;3924;48.830;9.262;2023-05-09T08:59:39;5.47;;;3.57;;
7759;SDS011;3924;48.830;9.262;2023-05-09T09:02:05;6.93;;;4.47;;
7759;SDS011;3924;48.830;9.262;2023-05-09T09:04:33;4.20;;;3.70;;
7759;SDS011;3924;48.830;9.262;2023-05-09T09:06:59;2.43;;;2.23;;
7759;SDS011;3924;48.830;9.262;2023-05-09T09:09:29;4.23;;;3.30;;
7759;SDS011;3924;48.830;9.262;2023-05-09T09:11:57;3.07;;;2.30;;
7759;SDS011;3924;48.830;9.262;2023-05-09T09:14:24;5.63;;;4.10;;
7759;SDS011;3924;48.830;9.262;2023-05-09T09:16:54;5.00;;;3.77;;
7759;SDS011;3924;48.830;9.262;2023-05-09T09:19:21;5.20;;;4.37;;
7759;SDS011;3924;48.830;9.262;2023-05-09T09:21:54;5.63;;;2.97;;
7759;SDS011;3924;48.830;9.262;2023-05-09T09:24:26;9.83;;;3.80;;
7759;SDS011;3924;48.830;9.262;2023-05-09T09:26:52;2.97;;;2.10;;
7759;SDS011;3924;48.830;9.262;2023-05-09T09:29:19;1.83;;;1.57;;
7759;SDS011;3924;48.830;9.262;2023-05-09T09:31:46;3.97;;;2.47;;
7759;SDS011;3924;48.830;9.262;2023-05-09T09:34:21;2.07;;;1.60;;
7759;SDS011;3924;48.830;9.262;2023-05-09T09:36:49;4.53;;;3.90;;
7759;SDS011;3924;48.830;9.262;2023-05-09T09:39:17;6.87;;;5.57;;
7759;SDS011;3924;48.830;9.262;2023-05-09T09:41:44;4.13;;;3.50;;
7759;SDS011;3924;48.830;9.262;2023-05-09T09:46:48;4.63;;;3.77;;
7759;SDS011;3924;48.830;9.262;2023-05-09T09:49:17;7.60;;;4.43;;
7759;SDS011;3924;48.830;9.262;2023-05-09T09:51:54;5.23;;;3.57;;
7759;SDS011;3924;48.830;9.262;2023-05-09T09:54:22;4.33;;;2.67;;
7759;SDS011;3924;48.830;9.262;2023-05-09T09:56:51;3.97;;;3.50;;
7759;SDS011;3924;48.830;9.262;2023-05-09T09:59:20;3.37;;;2.70;;
7759;SDS011;3924;48.830;9.262;2023-05-09T10:04:33;4.40;;;3.53;;
7759;SDS011;3924;48.830;9.262;2023-05-09T10:07:01;4.67;;;3.33;;
7759;SDS011;3924;48.830;9.262;2023-05-09T10:09:32;2.87;;;2.67;;
7759;SDS011;3924;48.830;9.262;2023-05-09T10:12:02;4.43;;;3.40;;
7759;SDS011;3924;48.830;9.262;2023-05-09T10:14:32;4.70;;;2.80;;
7759;SDS011;3924;48.830;9.262;2023-05-09T10:17:01;5.67;;;3.53;;
7759;SDS011;3924;48.830;9.262;2023-05-09T10:19:31;3.77;;;3.17;;
7759;SDS011;3924;48.830;9.262;2023-05-09T10:22:02;4.43;;;3.33;;
7759;SDS011;3924;48.830;9.262;2023-05-09T10:24:34;5.27;;;3.40;;
7759;SDS011;3924;48.830;9.262;2023-05-09T10:27:27;2.60;;;2.37;;
7759;SDS011;3924;48.830;9.262;2023-05-09T10:30:01;5.80;;;3.73;;
7759;SDS011;3924;48.830;9.262;2023-05-09T10:35:19;3.47;;;2.60;;
7759;SDS011;3924;48.830;9.262;2023-05-09T10:37:54;7.43;;;3.50;;
7759;SDS011;3924;48.830;9.262;2023-05-09T10:40:24;4.80;;;4.10;;
7759;SDS011;3924;48.830;9.262;2023-05-09T10:42:53;3.10;;;2.80;;
7759;SDS011;3924;48.830;9.262;2023-05-09T10:45:20;3.63;;;3.33;;
7759;SDS011;3924;48.830;9.262;2023-05-09T10:47:47;3.13;;;2.47;;
7759;SDS011;3924;48.830;9.262;2023-05-09T10:50:18;2.73;;;2.20;;
7759;SDS011;3924;48.830;9.262;2023-05-09T10:55:50;4.80;;;3.30;;
7759;SDS011;3924;48.830;9.262;2023-05-09T10:58:22;3.00;;;2.73;;
7759;SDS011;3924;48.830;9.262;2023-05-09T11:01:02;3.53;;;3.20;;
7759;SDS011;3924;48.830;9.262;2023-05-09T11:14:32;3.13;;;2.60;;
7759;SDS011;3924;48.830;9.262;2023-05-09T11:17:00;3.17;;;2.87;;
7759;SDS011;3924;48.830;9.262;2023-05-09T11:19:35;3.50;;;2.77;;
7759;SDS011;3924;48.830;9.262;2023-05-09T11:22:10;3.30;;;2.93;;
7759;SDS011;3924;48.830;9.262;2023-05-09T11:25:07;3.60;;;2.63;;
7759;SDS011;3924;48.830;9.262;2023-05-09T11:27:40;2.43;;;2.23;;
7759;SDS011;3924;48.830;9.262;2023-05-09T11:30:09;4.90;;;3.37;;
7759;SDS011;3924;48.830;9.262;2023-05-09T11:32:41;3.27;;;2.60;;
7759;SDS011;3924;48.830;9.262;2023-05-09T11:37:43;10.40;;;3.10;;
7759;SDS011;3924;48.830;9.262;2023-05-09T11:40:20;3.83;;;2.90;;
7759;SDS011;3924;48.830;9.262;2023-05-09T11:42:48;3.50;;;3.20;;
7759;SDS011;3924;48.830;9.262;2023-05-09T11:45:24;3.93;;;2.63;;
7759;SDS011;3924;48.830;9.262;2023-05-09T11:47:56;2.83;;;2.63;;
7759;SDS011;3924;48.830;9.262;2023-05-09T11:50:23;2.77;;;2.57;;
7759;SDS011;3924;48.830;9.262;2023-05-09T11:52:49;4.80;;;2.33;;
7759;SDS011;3924;48.830;9.262;2023-05-09T11:55:18;3.73;;;2.73;;
7759;SDS011;3924;48.830;9.262;2023-05-09T11:57:51;2.10;;;1.90;;
7759;SDS011;3924;48.830;9.262;2023-05-09T12:00:21;2.87;;;2.47;;
7759;SDS011;3924;48.830;9.262;2023-05-09T12:02:51;4.23;;;3.27;;
7759;SDS011;3924;48.830;9.262;2023-05-09T12:05:19;2.23;;;1.97;;
7759;SDS011;3924;48.830;9.262;2023-05-09T12:07:48;3.43;;;2.83;;
7759;SDS011;3924;48.830;9.262;2023-05-09T12:10:17;2.77;;;2.57;;
7759;SDS011;3924;48.830;9.262;2023-05-09T12:12:47;3.67;;;2.60;;
7759;SDS011;3924;48.830;9.262;2023-05-09T12:15:18;3.37;;;2.93;;
7759;SDS011;3924;48.830;9.262;2023-05-09T12:17:47;3.43;;;2.67;;
7759;SDS011;3924;48.830;9.262;2023-05-09T12:20:27;2.50;;;1.83;;
7759;SDS011;3924;48.830;9.262;2023-05-09T12:22:53;1.80;;;1.63;;
7759;SDS011;3924;48.830;9.262;2023-05-09T12:25:21;2.03;;;1.77;;
7759;SDS011;3924;48.830;9.262;2023-05-09T12:27:49;2.00;;;1.90;;
7759;SDS011;3924;48.830;9.262;2023-05-09T12:30:20;2.23;;;2.10;;
7759;SDS011;3924;48.830;9.262;2023-05-09T12:32:46;3.50;;;2.53;;
7759;SDS011;3924;48.830;9.262;2023-05-09T12:35:13;2.60;;;2.30;;
7759;SDS011;3924;48.830;9.262;2023-05-09T12:37:53;1.80;;;1.70;;
7759;SDS011;3924;48.830;9.262;2023-05-09T12:40:21;3.23;;;2.03;;
7759;SDS011;3924;48.830;9.262;2023-05-09T12:42:48;2.50;;;2.30;;
7759;SDS011;3924;48.830;9.262;2023-05-09T12:45:15;2.27;;;2.07;;
7759;SDS011;3924;48.830;9.262;2023-05-09T12:47:42;3.63;;;2.63;;
7759;SDS011;3924;48.830;9.262;2023-05-09T12:50:10;2.07;;;1.87;;
7759;SDS011;3924;48.830;9.262;2023-05-09T12:52:38;1.53;;;1.43;;
7759;SDS011;3924;48.830;9.262;2023-05-09T12:55:26;2.03;;;1.77;;
7759;SDS011;3924;48.830;9.262;2023-05-09T12:57:57;2.03;;;1.83;;
7759;SDS011;3924;48.830;9.262;2023-05-09T13:00:26;1.77;;;1.60;;
7759;SDS011;3924;48.830;9.262;2023-05-09T13:02:52;1.50;;;1.40;;
7759;SDS011;3924;48.830;9.262;2023-05-09T13:05:20;1.50;;;1.40;;
7759;SDS011;3924;48.830;9.262;2023-05-09T13:07:49;2.27;;;2.13;;
7759;SDS011;3924;48.830;9.262;2023-05-09T13:10:19;2.10;;;1.90;;
7759;SDS011;3924;48.830;9.262;2023-05-09T13:12:49;2.23;;;1.93;;
7759;SDS011;3924;48.830;9.262;2023-05-09T13:15:19;1.17;;;1.07;;
7759;SDS011;3924;48.830;9.262;2023-05-09T13:17:48;2.00;;;1.80;;
7759;SDS011;3924;48.830;9.262;2023-05-09T13:20:17;1.80;;;1.70;;
7759;SDS011;3924;48.830;9.262;2023-05-09T13:22:44;2.03;;;1.93;;
7759;SDS011;3924;48.830;9.262;2023-05-09T13:25:12;1.90;;;1.63;;
7759;SDS011;3924;48.830;9.262;2023-05-09T13:27:39;2.70;;;2.50;;
7759;SDS011;3924;48.830;9.262;2023-05-09T13:30:05;2.33;;;2.13;;
7759;SDS011;3924;48.830;9.262;2023-05-09T13:32:33;1.37;;;1.33;;
7759;SDS011;3924;48.830;9.262;2023-05-09T13:35:02;1.67;;;1.43;;
7759;SDS011;3924;48.830;9.262;2023-05-09T13:37:32;2.00;;;1.83;;
7759;SDS011;3924;48.830;9.262;2023-05-09T13:39:59;1.70;;;1.60;;
7759;SDS011;3924;48.830;9.262;2023-05-09T13:42:26;2.20;;;1.77;;
7759;SDS011;3924;48.830;9.262;2023-05-09T13:44:53;1.33;;;1.27;;
7759;SDS011;3924;48.830;9.262;2023-05-09T13:47:20;1.50;;;1.40;;
7759;SDS011;3924;48.830;9.262;2023-05-09T13:49:46;3.50;;;1.73;;
7759;SDS011;3924;48.830;9.262;2023-05-09T13:52:14;1.43;;;1.27;;
7759;SDS011;3924;48.830;9.262;2023-05-09T13:54:41;1.60;;;1.50;;
7759;SDS011;3924;48.830;9.262;2023-05-09T13:57:08;1.97;;;1.77;;
7759;SDS011;3924;48.830;9.262;2023-05-09T13:59:35;1.80;;;1.53;;
7759;SDS011;3924;48.830;9.262;2023-05-09T14:02:02;1.43;;;1.33;;
7759;SDS011;3924;48.830;9.262;2023-05-09T14:04:29;1.30;;;1.20;;
7759;SDS011;3924;48.830;9.262;2023-05-09T14:07:00;1.30;;;1.20;;
7759;SDS011;3924;48.830;9.262;2023-05-09T14:09:27;1.30;;;1.20;;
7759;SDS011;3924;48.830;9.262;2023-05-09T14:12:00;1.13;;;1.10;;
7759;SDS011;3924;48.830;9.262;2023-05-09T14:14:29;4.70;;;1.60;;
7759;SDS011;3924;48.830;9.262;2023-05-09T14:16:56;1.13;;;1.13;;
7759;SDS011;3924;48.830;9.262;2023-05-09T14:19:24;1.10;;;0.73;;
7759;SDS011;3924;48.830;9.262;2023-05-09T14:21:55;1.33;;;1.30;;
7759;SDS011;3924;48.830;9.262;2023-05-09T14:24:23;12.77;;;7.17;;
7759;SDS011;3924;48.830;9.262;2023-05-09T14:26:52;1.27;;;1.27;;
7759;SDS011;3924;48.830;9.262;2023-05-09T14:29:18;0.90;;;0.90;;
7759;SDS011;3924;48.830;9.262;2023-05-09T14:31:45;1.10;;;1.00;;
7759;SDS011;3924;48.830;9.262;2023-05-09T14:34:11;0.80;;;0.80;;
7759;SDS011;3924;48.830;9.262;2023-05-09T14:36:38;0.87;;;0.87;;
7759;SDS011;3924;48.830;9.262;2023-05-09T14:39:06;0.80;;;0.80;;
7759;SDS011;3924;48.830;9.262;2023-05-09T14:41:32;0.93;;;0.93;;
7759;SDS011;3924;48.830;9.262;2023-05-09T14:44:00;1.27;;;1.17;;
7759;SDS011;3924;48.830;9.262;2023-05-09T14:46:28;1.00;;;1.00;;
7759;SDS011;3924;48.830;9.262;2023-05-09T14:48:56;4.03;;;1.40;;
7759;SDS011;3924;48.830;9.262;2023-05-09T14:51:30;1.10;;;1.10;;
7759;SDS011;3924;48.830;9.262;2023-05-09T14:53:58;1.20;;;1.10;;
7759;SDS011;3924;48.830;9.262;2023-05-09T14:56:29;0.77;;;0.77;;
7759;SDS011;3924;48.830;9.262;2023-05-09T14:58:56;0.93;;;0.93;;
7759;SDS011;3924;48.830;9.262;2023-05-09T15:01:22;0.90;;;0.90;;
7759;SDS011;3924;48.830;9.262;2023-05-09T15:03:50;0.70;;;0.70;;
7759;SDS011;3924;48.830;9.262;2023-05-09T15:06:17;1.07;;;0.70;;
7759;SDS011;3924;48.830;9.262;2023-05-09T15:08:44;0.70;;;0.70;;
7759;SDS011;3924;48.830;9.262;2023-05-09T15:11:11;0.63;;;0.63;;
7759;SDS011;3924;48.830;9.262;2023-05-09T15:13:39;0.50;;;0.50;;
7759;SDS011;3924;48.830;9.262;2023-05-09T15:16:05;0.70;;;0.70;;
7759;SDS011;3924;48.830;9.262;2023-05-09T15:18:32;1.23;;;0.80;;
7759;SDS011;3924;48.830;9.262;2023-05-09T15:21:00;0.70;;;0.70;;
7759;SDS011;3924;48.830;9.262;2023-05-09T15:23:26;12.30;;;6.93;;
7759;SDS011;3924;48.830;9.262;2023-05-09T15:25:53;0.50;;;0.50;;
7759;SDS011;3924;48.830;9.262;2023-05-09T15:28:20;0.87;;;0.83;;
7759;SDS011;3924;48.830;9.262;2023-05-09T15:30:50;0.60;;;0.60;;
7759;SDS011;3924;48.830;9.262;2023-05-09T15:33:16;0.70;;;0.60;;
7759;SDS011;3924;48.830;9.262;2023-05-09T15:35:44;0.70;;;0.70;;
7759;SDS011;3924;48.830;9.262;2023-05-09T15:38:12;0.67;;;0.67;;
7759;SDS011;3924;48.830;9.262;2023-05-09T15:40:43;0.77;;;0.77;;
7759;SDS011;3924;48.830;9.262;2023-05-09T15:43:11;0.67;;;0.67;;
7759;SDS011;3924;48.830;9.262;2023-05-09T15:45:38;0.87;;;0.80;;
7759;SDS011;3924;48.830;9.262;2023-05-09T15:48:11;0.70;;;0.70;;
7759;SDS011;3924;48.830;9.262;2023-05-09T15:50:40;1.37;;;1.20;;
7759;SDS011;3924;48.830;9.262;2023-05-09T15:53:08;1.27;;;1.17;;
7759;SDS011;3924;48.830;9.262;2023-05-09T15:55:34;1.20;;;1.10;;
7759;SDS011;3924;48.830;9.262;2023-05-09T15:58:02;1.33;;;1.23;;